createdAt,value
2023-03-18T00:03:51.974Z,66.5
2023-03-18T00:08:58.027Z,66
2023-03-18T00:14:04.134Z,67
2023-03-18T00:19:10.202Z,66.5
2023-03-18T00:24:16.361Z,68.5
2023-03-18T00:29:22.426Z,66.5
2023-03-18T00:34:28.640Z,67.5
2023-03-18T00:39:40.233Z,68.5
2023-03-18T00:44:51.960Z,68
2023-03-18T00:49:58.057Z,68
2023-03-18T00:55:04.133Z,67
2023-03-18T01:00:10.270Z,66.5
2023-03-18T01:05:16.338Z,66
2023-03-18T01:10:22.452Z,66
2023-03-18T01:15:28.546Z,65
2023-03-18T01:20:34.630Z,67
2023-03-18T01:25:40.690Z,66.5
2023-03-18T01:30:46.847Z,68
2023-03-18T01:35:52.895Z,68
2023-03-18T01:40:59.023Z,66
2023-03-18T01:46:05.122Z,66.5
2023-03-18T01:51:11.181Z,66
2023-03-18T01:56:17.296Z,67
2023-03-18T02:01:23.475Z,65.5
2023-03-18T02:06:29.542Z,67
2023-03-18T02:11:35.569Z,66.5
2023-03-18T02:16:41.731Z,64.5
2023-03-18T02:21:47.785Z,63.5
2023-03-18T02:26:59.472Z,65.5
2023-03-18T02:32:05.632Z,66.5
2023-03-18T02:37:17.300Z,66.5
2023-03-18T02:42:23.412Z,65.5
2023-03-18T02:47:29.712Z,65
2023-03-18T02:52:35.601Z,64.5
2023-03-18T02:57:41.681Z,65
2023-03-18T03:02:47.935Z,65.5
2023-03-18T03:12:59.954Z,65.5
2023-03-18T03:18:06.117Z,65.5
2023-03-18T03:23:12.146Z,63.5
2023-03-18T03:28:18.260Z,65.5
2023-03-18T03:33:24.343Z,66
2023-03-18T03:38:30.471Z,67.5
2023-03-18T03:43:36.526Z,66.5
2023-03-18T03:48:42.683Z,65.5
2023-03-18T03:53:54.829Z,68
2023-03-18T03:59:00.481Z,67.5
2023-03-18T04:04:06.649Z,66
2023-03-18T04:09:12.644Z,65.5
2023-03-18T04:14:18.720Z,68
2023-03-18T04:19:30.517Z,63.5
2023-03-18T04:24:36.564Z,65.5
2023-03-18T04:29:42.675Z,67
2023-03-18T04:34:48.775Z,63
2023-03-18T04:39:54.851Z,65.5
2023-03-18T04:45:00.922Z,66.5
2023-03-18T04:50:07.224Z,66
2023-03-18T04:55:13.116Z,63.5
2023-03-18T05:00:19.210Z,63.5
2023-03-18T05:05:25.346Z,64
2023-03-18T05:10:31.398Z,66
2023-03-18T05:15:37.660Z,66.5
2023-03-18T05:20:43.604Z,65.5
2023-03-18T05:25:49.702Z,64.5
2023-03-18T05:30:55.791Z,66
2023-03-18T05:36:01.924Z,66.5
2023-03-18T05:41:07.984Z,67
2023-03-18T05:46:14.072Z,66
2023-03-18T05:51:20.228Z,64.5
2023-03-18T05:56:26.251Z,65
2023-03-18T06:01:38.083Z,64.5
2023-03-18T06:06:49.786Z,63
2023-03-18T06:12:01.482Z,63.5
2023-03-18T06:17:07.518Z,65
2023-03-18T06:22:13.676Z,65
2023-03-18T06:27:19.716Z,62.5
2023-03-18T06:32:25.852Z,57
2023-03-18T06:37:31.916Z,54.5
2023-03-18T06:42:38.076Z,46.5
2023-03-18T06:47:44.135Z,46
2023-03-18T06:52:50.254Z,43
2023-03-18T06:57:56.288Z,47
2023-03-18T07:03:02.397Z,44
2023-03-18T07:08:08.486Z,44
2023-03-18T07:13:14.590Z,37
2023-03-18T07:18:20.721Z,36.5
2023-03-18T07:23:26.907Z,34
2023-03-18T07:28:32.967Z,37
2023-03-18T07:33:38.987Z,35.5
2023-03-18T07:38:45.055Z,36.5
2023-03-18T07:43:51.266Z,35.5
2023-03-18T07:48:57.463Z,33.5
2023-03-18T07:54:03.367Z,35
2023-03-18T07:59:17.251Z,35.5
2023-03-18T08:04:26.982Z,34
2023-03-18T08:09:32.894Z,34.5
2023-03-18T08:14:39.020Z,35
2023-03-18T08:19:45.082Z,44
2023-03-18T08:24:51.221Z,48.5
2023-03-18T08:29:57.277Z,49
2023-03-18T08:35:03.384Z,50.5
2023-03-18T08:40:09.490Z,45
2023-03-18T08:45:15.612Z,49.5
2023-03-18T08:50:21.666Z,48.5
2023-03-18T08:55:27.878Z,49
2023-03-18T09:00:34.015Z,49
2023-03-18T09:05:39.941Z,49
2023-03-18T09:10:46.126Z,49
2023-03-18T09:15:52.183Z,48
2023-03-18T09:20:58.214Z,50
2023-03-18T09:26:04.372Z,49.5
2023-03-18T09:31:10.441Z,50.5
2023-03-18T09:36:16.567Z,49.5
2023-03-18T09:41:22.663Z,48
2023-03-18T09:46:34.504Z,50
2023-03-18T09:51:46.083Z,48
2023-03-18T09:56:52.215Z,48.5
2023-03-18T10:01:58.226Z,48.5
2023-03-18T10:07:04.329Z,48
2023-03-18T10:12:10.475Z,47.5
2023-03-18T10:17:16.565Z,48
2023-03-18T10:22:22.604Z,50
2023-03-18T10:27:28.786Z,50.5
2023-03-18T10:32:46.824Z,45
2023-03-18T10:37:40.936Z,48.5
2023-03-18T10:42:47.037Z,45.5
2023-03-18T10:47:53.145Z,45
2023-03-18T10:52:59.247Z,43
2023-03-18T10:58:05.452Z,45
2023-03-18T11:03:11.445Z,44
2023-03-18T11:13:23.708Z,42
2023-03-18T11:18:29.658Z,44
2023-03-18T11:23:35.861Z,42
2023-03-18T11:28:41.984Z,45
2023-03-18T11:33:47.976Z,41
2023-03-18T11:38:59.680Z,44
2023-03-18T11:44:05.821Z,39
2023-03-18T11:49:11.882Z,42
2023-03-18T11:54:17.996Z,42
2023-03-18T11:59:24.092Z,45
2023-03-18T12:04:30.155Z,44
2023-03-18T12:09:36.233Z,42
2023-03-18T12:14:42.363Z,40
2023-03-18T12:19:48.431Z,41.5
2023-03-18T12:24:54.699Z,43
2023-03-18T12:30:00.638Z,42.5
2023-03-18T12:35:06.807Z,43
2023-03-18T12:40:12.817Z,40.5
2023-03-18T12:45:18.954Z,40.5
2023-03-18T12:50:24.987Z,43.5
2023-03-18T12:55:31.251Z,39.5
2023-03-18T13:00:37.288Z,42
2023-03-18T13:05:43.448Z,42
2023-03-18T13:10:49.386Z,43.5
2023-03-18T13:15:55.510Z,41
2023-03-18T13:21:07.204Z,42
2023-03-18T13:26:18.963Z,43
2023-03-18T13:31:25.134Z,45.5
2023-03-18T13:36:31.178Z,42
2023-03-18T13:41:37.200Z,41
2023-03-18T13:46:43.364Z,42
2023-03-18T13:51:49.438Z,42.5
2023-03-18T13:56:55.645Z,42.5
2023-03-18T14:02:01.666Z,43
2023-03-18T14:07:07.807Z,42
2023-03-18T14:12:13.842Z,43
2023-03-18T14:17:19.922Z,45
2023-03-18T14:22:25.953Z,47.5
2023-03-18T14:27:32.114Z,47
2023-03-18T14:32:38.249Z,48
2023-03-18T14:37:44.267Z,47.5
2023-03-18T14:42:50.389Z,44.5
2023-03-18T14:47:56.504Z,47.5
2023-03-18T14:53:02.539Z,48.5
2023-03-18T14:58:08.671Z,49
2023-03-18T15:03:14.803Z,49.5
2023-03-18T15:08:34.465Z,52
2023-03-18T15:13:32.550Z,54
2023-03-18T15:18:38.741Z,50.5
2023-03-18T15:23:44.781Z,50.5
2023-03-18T15:28:50.884Z,49.5
2023-03-18T15:33:56.969Z,51
2023-03-18T15:39:03.053Z,50.5
2023-03-18T15:44:09.108Z,46
2023-03-18T15:49:15.277Z,47
2023-03-18T15:54:21.323Z,48
2023-03-18T15:59:27.435Z,50
2023-03-18T16:04:33.527Z,51
2023-03-18T16:09:39.606Z,52
2023-03-18T16:14:45.693Z,54
2023-03-18T16:19:51.819Z,54.5
2023-03-18T16:24:57.885Z,55
2023-03-18T16:30:04.067Z,54.5
2023-03-18T16:35:10.063Z,54.5
2023-03-18T16:40:16.378Z,55.5
2023-03-18T16:50:28.453Z,55.5
2023-03-18T16:55:40.252Z,55.5
2023-03-18T17:00:51.832Z,55.5
2023-03-18T17:05:57.954Z,56.5
2023-03-18T17:11:04.063Z,56.5
2023-03-18T17:16:10.149Z,57
2023-03-18T17:21:16.225Z,57
2023-03-18T17:26:22.283Z,58.5
2023-03-18T17:31:28.518Z,61
2023-03-18T17:36:34.770Z,62
2023-03-18T17:41:40.576Z,61.5
2023-03-18T17:46:46.659Z,63
2023-03-18T17:51:52.758Z,63
2023-03-18T17:56:58.866Z,63
2023-03-18T18:02:04.952Z,64
2023-03-18T18:07:11.084Z,64
2023-03-18T18:12:17.110Z,64.5
2023-03-18T18:17:23.259Z,64.5
2023-03-18T18:22:29.369Z,65
2023-03-18T18:27:35.423Z,66
2023-03-18T18:32:41.647Z,66.5
2023-03-18T18:37:47.647Z,66.5
2023-03-18T18:42:59.329Z,67.5
2023-03-18T18:48:11.088Z,67.5
2023-03-18T18:53:17.192Z,67.5
2023-03-18T18:58:23.303Z,67.5
2023-03-18T19:03:29.412Z,67.5
2023-03-18T19:08:35.477Z,68
2023-03-18T19:13:41.537Z,67.5
2023-03-18T19:18:47.654Z,67
2023-03-18T19:23:53.736Z,65.5
2023-03-18T19:29:00.114Z,67
2023-03-18T19:34:11.532Z,68.5
2023-03-18T19:39:17.721Z,68.5
2023-03-18T19:44:23.732Z,66.5
2023-03-18T19:49:29.858Z,66.5
2023-03-18T19:54:35.917Z,65.5
2023-03-18T19:59:42.027Z,67.5
2023-03-18T20:04:48.186Z,69
2023-03-18T20:09:54.268Z,69.5
2023-03-18T20:15:00.302Z,68.5
2023-03-18T20:20:06.439Z,69.5
2023-03-18T20:25:18.140Z,69.5
2023-03-18T20:30:24.293Z,70
2023-03-18T20:35:30.383Z,69.5
2023-03-18T20:40:36.430Z,69
2023-03-18T20:45:42.598Z,70
2023-03-18T20:50:48.719Z,70
2023-03-18T20:55:54.704Z,69.5
2023-03-18T21:01:00.862Z,69
2023-03-18T21:06:06.888Z,70.5
2023-03-18T21:11:13.002Z,72
2023-03-18T21:16:19.084Z,70
2023-03-18T21:21:25.212Z,71
2023-03-18T21:26:31.281Z,71
2023-03-18T21:31:37.374Z,70.5
2023-03-18T21:36:43.462Z,69
2023-03-18T21:41:49.569Z,69.5
2023-03-18T21:46:55.674Z,72
2023-03-18T21:52:01.783Z,70
2023-03-18T21:57:07.857Z,71.5
2023-03-18T22:02:13.902Z,71.5
2023-03-18T22:07:25.690Z,72
2023-03-18T22:12:31.785Z,73.5
2023-03-18T22:17:39.061Z,72
2023-03-18T22:22:43.934Z,73
2023-03-18T22:27:50.054Z,72
2023-03-18T22:32:56.263Z,73
2023-03-18T22:38:02.225Z,72
2023-03-18T22:43:08.400Z,72.5
2023-03-18T22:48:14.415Z,70.5
2023-03-18T22:53:20.497Z,70.5
2023-03-18T22:58:26.640Z,72
2023-03-18T23:03:32.772Z,72
2023-03-18T23:08:38.797Z,72
2023-03-18T23:13:44.881Z,72
2023-03-18T23:18:50.959Z,73
2023-03-18T23:23:57.124Z,71.5
2023-03-18T23:29:03.241Z,72.5
2023-03-18T23:34:09.224Z,71.5
2023-03-18T23:39:15.342Z,70
2023-03-18T23:44:21.414Z,70.5
2023-03-18T23:49:33.155Z,71
2023-03-18T23:54:39.234Z,70.5
2023-03-18T23:59:45.353Z,70.5
